sensor_id;sensor_type;location;lat;lon;timestamp;temperature;humidity
74617;DHT22;63123;50.906;4.198;2023-02-11T00:01:09;16.80;47.40
74617;DHT22;63123;50.906;4.198;2023-02-11T00:03:36;16.80;47.40
74617;DHT22;63123;50.906;4.198;2023-02-11T00:06:05;16.80;47.40
74617;DHT22;63123;50.906;4.198;2023-02-11T00:08:34;16.80;47.50
74617;DHT22;63123;50.906;4.198;2023-02-11T00:10:59;16.80;47.50
74617;DHT22;63123;50.906;4.198;2023-02-11T00:13:25;16.80;47.30
74617;DHT22;63123;50.906;4.198;2023-02-11T00:15:51;16.80;47.40
74617;DHT22;63123;50.906;4.198;2023-02-11T00:18:17;16.80;47.40
74617;DHT22;63123;50.906;4.198;2023-02-11T00:20:42;16.80;47.40
74617;DHT22;63123;50.906;4.198;2023-02-11T00:23:08;16.80;47.40
74617;DHT22;63123;50.906;4.198;2023-02-11T00:25:40;16.80;47.40
74617;DHT22;63123;50.906;4.198;2023-02-11T00:28:07;16.80;47.40
74617;DHT22;63123;50.906;4.198;2023-02-11T00:30:33;16.80;47.40
74617;DHT22;63123;50.906;4.198;2023-02-11T00:32:58;16.80;47.40
74617;DHT22;63123;50.906;4.198;2023-02-11T00:35:24;16.80;47.40
74617;DHT22;63123;50.906;4.198;2023-02-11T00:37:52;16.80;47.50
74617;DHT22;63123;50.906;4.198;2023-02-11T00:40:18;16.80;47.50
74617;DHT22;63123;50.906;4.198;2023-02-11T00:42:44;16.70;47.40
74617;DHT22;63123;50.906;4.198;2023-02-11T00:45:10;16.80;47.40
74617;DHT22;63123;50.906;4.198;2023-02-11T00:47:35;16.80;47.50
74617;DHT22;63123;50.906;4.198;2023-02-11T00:50:02;16.80;47.40
74617;DHT22;63123;50.906;4.198;2023-02-11T00:52:30;16.80;47.30
74617;DHT22;63123;50.906;4.198;2023-02-11T00:54:55;16.80;47.30
74617;DHT22;63123;50.906;4.198;2023-02-11T00:57:21;16.80;47.30
74617;DHT22;63123;50.906;4.198;2023-02-11T00:59:46;16.80;47.40
74617;DHT22;63123;50.906;4.198;2023-02-11T01:02:12;16.80;47.50
74617;DHT22;63123;50.906;4.198;2023-02-11T01:04:38;16.80;47.40
74617;DHT22;63123;50.906;4.198;2023-02-11T01:07:03;16.80;47.40
74617;DHT22;63123;50.906;4.198;2023-02-11T01:09:29;16.80;47.40
74617;DHT22;63123;50.906;4.198;2023-02-11T01:11:54;16.80;47.30
74617;DHT22;63123;50.906;4.198;2023-02-11T01:14:20;16.80;47.30
74617;DHT22;63123;50.906;4.198;2023-02-11T01:16:45;16.70;47.30
74617;DHT22;63123;50.906;4.198;2023-02-11T01:19:11;16.80;47.40
74617;DHT22;63123;50.906;4.198;2023-02-11T01:21:37;16.70;47.90
74617;DHT22;63123;50.906;4.198;2023-02-11T01:24:02;16.80;47.30
74617;DHT22;63123;50.906;4.198;2023-02-11T01:26:28;16.80;47.30
74617;DHT22;63123;50.906;4.198;2023-02-11T01:28:53;16.80;47.30
74617;DHT22;63123;50.906;4.198;2023-02-11T01:31:19;16.80;47.40
74617;DHT22;63123;50.906;4.198;2023-02-11T01:33:45;16.80;47.40
74617;DHT22;63123;50.906;4.198;2023-02-11T01:36:11;16.70;47.20
74617;DHT22;63123;50.906;4.198;2023-02-11T01:38:37;16.80;47.30
74617;DHT22;63123;50.906;4.198;2023-02-11T01:41:08;16.80;47.40
74617;DHT22;63123;50.906;4.198;2023-02-11T01:43:38;16.80;47.40
74617;DHT22;63123;50.906;4.198;2023-02-11T01:46:31;16.80;47.30
74617;DHT22;63123;50.906;4.198;2023-02-11T01:54:27;16.80;47.20
74617;DHT22;63123;50.906;4.198;2023-02-11T01:57:14;16.80;47.30
74617;DHT22;63123;50.906;4.198;2023-02-11T02:05:21;16.70;47.20
74617;DHT22;63123;50.906;4.198;2023-02-11T02:10:33;16.80;47.50
74617;DHT22;63123;50.906;4.198;2023-02-11T02:12:59;16.80;47.50
74617;DHT22;63123;50.906;4.198;2023-02-11T02:15:33;16.80;47.50
74617;DHT22;63123;50.906;4.198;2023-02-11T02:26:26;16.80;47.50
74617;DHT22;63123;50.906;4.198;2023-02-11T02:31:51;16.80;47.40
74617;DHT22;63123;50.906;4.198;2023-02-11T02:34:31;16.70;47.10
74617;DHT22;63123;50.906;4.198;2023-02-11T02:37:23;16.70;47.40
74617;DHT22;63123;50.906;4.198;2023-02-11T02:39:51;16.80;47.30
74617;DHT22;63123;50.906;4.198;2023-02-11T02:42:17;16.80;47.50
74617;DHT22;63123;50.906;4.198;2023-02-11T02:44:48;16.70;47.40
74617;DHT22;63123;50.906;4.198;2023-02-11T02:47:14;16.70;47.50
74617;DHT22;63123;50.906;4.198;2023-02-11T02:49:40;16.80;47.50
74617;DHT22;63123;50.906;4.198;2023-02-11T02:52:09;16.80;47.50
74617;DHT22;63123;50.906;4.198;2023-02-11T02:59:56;16.80;47.60
74617;DHT22;63123;50.906;4.198;2023-02-11T03:02:30;16.70;47.60
74617;DHT22;63123;50.906;4.198;2023-02-11T03:05:05;16.70;47.50
74617;DHT22;63123;50.906;4.198;2023-02-11T03:07:58;16.80;47.70
74617;DHT22;63123;50.906;4.198;2023-02-11T03:10:33;16.80;47.40
74617;DHT22;63123;50.906;4.198;2023-02-11T03:13:01;16.80;47.60
74617;DHT22;63123;50.906;4.198;2023-02-11T03:15:30;16.70;47.50
74617;DHT22;63123;50.906;4.198;2023-02-11T03:17:58;16.70;47.60
74617;DHT22;63123;50.906;4.198;2023-02-11T03:20:26;16.80;47.70
74617;DHT22;63123;50.906;4.198;2023-02-11T03:23:03;16.70;47.60
74617;DHT22;63123;50.906;4.198;2023-02-11T03:25:36;16.70;47.60
74617;DHT22;63123;50.906;4.198;2023-02-11T03:28:05;16.80;47.60
74617;DHT22;63123;50.906;4.198;2023-02-11T03:30:48;16.70;47.60
74617;DHT22;63123;50.906;4.198;2023-02-11T03:33:23;16.80;47.70
74617;DHT22;63123;50.906;4.198;2023-02-11T03:38:28;16.80;47.60
74617;DHT22;63123;50.906;4.198;2023-02-11T03:40:55;16.80;47.60
74617;DHT22;63123;50.906;4.198;2023-02-11T03:45:59;16.80;47.70
74617;DHT22;63123;50.906;4.198;2023-02-11T03:48:32;16.80;47.70
74617;DHT22;63123;50.906;4.198;2023-02-11T03:51:00;16.70;47.60
74617;DHT22;63123;50.906;4.198;2023-02-11T03:53:27;16.70;47.60
74617;DHT22;63123;50.906;4.198;2023-02-11T03:55:54;16.80;47.70
74617;DHT22;63123;50.906;4.198;2023-02-11T03:58:20;16.70;48.30
74617;DHT22;63123;50.906;4.198;2023-02-11T04:00:46;16.80;47.80
74617;DHT22;63123;50.906;4.198;2023-02-11T04:03:12;16.70;47.60
74617;DHT22;63123;50.906;4.198;2023-02-11T04:05:38;16.80;47.70
74617;DHT22;63123;50.906;4.198;2023-02-11T04:08:04;16.70;47.60
74617;DHT22;63123;50.906;4.198;2023-02-11T04:10:30;16.70;47.70
74617;DHT22;63123;50.906;4.198;2023-02-11T04:12:56;16.80;47.70
74617;DHT22;63123;50.906;4.198;2023-02-11T04:15:22;16.70;47.70
74617;DHT22;63123;50.906;4.198;2023-02-11T04:17:48;16.80;47.70
74617;DHT22;63123;50.906;4.198;2023-02-11T04:20:13;16.80;47.70
74617;DHT22;63123;50.906;4.198;2023-02-11T04:22:39;16.80;47.60
74617;DHT22;63123;50.906;4.198;2023-02-11T04:25:06;16.70;47.60
74617;DHT22;63123;50.906;4.198;2023-02-11T04:27:32;16.80;47.80
74617;DHT22;63123;50.906;4.198;2023-02-11T04:29:57;16.70;47.70
74617;DHT22;63123;50.906;4.198;2023-02-11T04:32:23;16.70;47.70
74617;DHT22;63123;50.906;4.198;2023-02-11T04:34:49;16.80;47.80
74617;DHT22;63123;50.906;4.198;2023-02-11T04:37:15;16.70;47.60
74617;DHT22;63123;50.906;4.198;2023-02-11T04:39:40;16.80;47.70
74617;DHT22;63123;50.906;4.198;2023-02-11T04:42:06;16.80;47.70
74617;DHT22;63123;50.906;4.198;2023-02-11T04:44:32;16.70;47.70
74617;DHT22;63123;50.906;4.198;2023-02-11T04:46:58;16.70;47.70
74617;DHT22;63123;50.906;4.198;2023-02-11T04:49:23;16.80;47.90
74617;DHT22;63123;50.906;4.198;2023-02-11T04:51:49;16.80;47.80
74617;DHT22;63123;50.906;4.198;2023-02-11T04:54:15;16.70;47.80
74617;DHT22;63123;50.906;4.198;2023-02-11T04:56:41;16.80;47.80
74617;DHT22;63123;50.906;4.198;2023-02-11T04:59:06;16.80;47.80
74617;DHT22;63123;50.906;4.198;2023-02-11T05:01:32;16.70;47.70
74617;DHT22;63123;50.906;4.198;2023-02-11T05:03:58;16.80;47.80
74617;DHT22;63123;50.906;4.198;2023-02-11T05:06:24;16.70;47.80
74617;DHT22;63123;50.906;4.198;2023-02-11T05:08:50;16.70;47.70
74617;DHT22;63123;50.906;4.198;2023-02-11T05:11:21;16.70;47.70
74617;DHT22;63123;50.906;4.198;2023-02-11T05:13:47;16.80;47.80
74617;DHT22;63123;50.906;4.198;2023-02-11T05:16:13;16.80;47.80
74617;DHT22;63123;50.906;4.198;2023-02-11T05:18:41;16.70;47.80
74617;DHT22;63123;50.906;4.198;2023-02-11T05:21:12;16.80;47.70
74617;DHT22;63123;50.906;4.198;2023-02-11T05:23:39;16.70;47.70
74617;DHT22;63123;50.906;4.198;2023-02-11T05:26:04;16.70;47.70
74617;DHT22;63123;50.906;4.198;2023-02-11T05:28:30;16.80;47.90
74617;DHT22;63123;50.906;4.198;2023-02-11T05:30:56;16.80;47.80
74617;DHT22;63123;50.906;4.198;2023-02-11T05:33:21;16.80;47.80
74617;DHT22;63123;50.906;4.198;2023-02-11T05:35:47;16.80;47.80
74617;DHT22;63123;50.906;4.198;2023-02-11T05:38:13;16.80;47.80
74617;DHT22;63123;50.906;4.198;2023-02-11T05:40:39;16.70;47.80
74617;DHT22;63123;50.906;4.198;2023-02-11T05:43:05;16.80;47.90
74617;DHT22;63123;50.906;4.198;2023-02-11T05:45:30;16.70;47.90
74617;DHT22;63123;50.906;4.198;2023-02-11T05:47:56;16.80;47.90
74617;DHT22;63123;50.906;4.198;2023-02-11T05:50:22;16.70;47.80
74617;DHT22;63123;50.906;4.198;2023-02-11T05:52:48;16.70;47.80
74617;DHT22;63123;50.906;4.198;2023-02-11T05:55:13;16.70;47.80
74617;DHT22;63123;50.906;4.198;2023-02-11T05:57:39;16.80;47.90
74617;DHT22;63123;50.906;4.198;2023-02-11T06:00:05;16.70;47.80
74617;DHT22;63123;50.906;4.198;2023-02-11T06:02:31;16.80;47.90
74617;DHT22;63123;50.906;4.198;2023-02-11T06:04:57;16.80;48.00
74617;DHT22;63123;50.906;4.198;2023-02-11T06:07:22;16.80;48.00
74617;DHT22;63123;50.906;4.198;2023-02-11T06:09:48;16.80;48.00
74617;DHT22;63123;50.906;4.198;2023-02-11T06:12:13;16.80;48.00
74617;DHT22;63123;50.906;4.198;2023-02-11T06:14:40;16.80;48.00
74617;DHT22;63123;50.906;4.198;2023-02-11T06:17:05;16.80;48.00
74617;DHT22;63123;50.906;4.198;2023-02-11T06:19:31;16.80;48.00
74617;DHT22;63123;50.906;4.198;2023-02-11T06:21:57;16.70;48.00
74617;DHT22;63123;50.906;4.198;2023-02-11T06:24:23;16.80;48.00
74617;DHT22;63123;50.906;4.198;2023-02-11T06:26:49;16.70;48.00
74617;DHT22;63123;50.906;4.198;2023-02-11T06:29:14;16.80;48.10
74617;DHT22;63123;50.906;4.198;2023-02-11T06:31:40;16.80;48.00
74617;DHT22;63123;50.906;4.198;2023-02-11T06:34:07;16.80;48.10
74617;DHT22;63123;50.906;4.198;2023-02-11T06:36:33;16.80;48.00
74617;DHT22;63123;50.906;4.198;2023-02-11T06:38:58;16.70;48.10
74617;DHT22;63123;50.906;4.198;2023-02-11T06:41:24;16.80;48.10
74617;DHT22;63123;50.906;4.198;2023-02-11T06:43:51;16.70;48.00
74617;DHT22;63123;50.906;4.198;2023-02-11T06:46:17;16.80;48.10
74617;DHT22;63123;50.906;4.198;2023-02-11T06:48:43;16.80;48.20
74617;DHT22;63123;50.906;4.198;2023-02-11T06:51:10;16.80;48.10
74617;DHT22;63123;50.906;4.198;2023-02-11T06:53:38;16.70;48.10
74617;DHT22;63123;50.906;4.198;2023-02-11T06:56:10;16.80;48.10
74617;DHT22;63123;50.906;4.198;2023-02-11T06:58:36;16.80;48.10
74617;DHT22;63123;50.906;4.198;2023-02-11T07:01:10;16.80;48.10
74617;DHT22;63123;50.906;4.198;2023-02-11T07:03:38;16.80;48.20
74617;DHT22;63123;50.906;4.198;2023-02-11T07:06:06;16.80;48.20
74617;DHT22;63123;50.906;4.198;2023-02-11T07:08:33;16.80;48.20
74617;DHT22;63123;50.906;4.198;2023-02-11T07:10:59;16.80;48.20
74617;DHT22;63123;50.906;4.198;2023-02-11T07:13:25;16.80;48.20
74617;DHT22;63123;50.906;4.198;2023-02-11T07:15:51;16.80;48.20
74617;DHT22;63123;50.906;4.198;2023-02-11T07:18:16;16.80;48.20
74617;DHT22;63123;50.906;4.198;2023-02-11T07:20:42;16.80;48.20
74617;DHT22;63123;50.906;4.198;2023-02-11T07:23:08;16.70;48.20
74617;DHT22;63123;50.906;4.198;2023-02-11T07:25:35;16.80;48.30
74617;DHT22;63123;50.906;4.198;2023-02-11T07:28:00;16.80;48.30
74617;DHT22;63123;50.906;4.198;2023-02-11T07:30:26;16.80;48.20
74617;DHT22;63123;50.906;4.198;2023-02-11T07:32:52;16.80;48.30
74617;DHT22;63123;50.906;4.198;2023-02-11T07:35:18;16.80;48.30
74617;DHT22;63123;50.906;4.198;2023-02-11T07:37:43;16.70;48.20
74617;DHT22;63123;50.906;4.198;2023-02-11T07:40:09;16.80;48.30
74617;DHT22;63123;50.906;4.198;2023-02-11T07:42:35;16.80;48.30
74617;DHT22;63123;50.906;4.198;2023-02-11T07:45:00;16.70;48.30
74617;DHT22;63123;50.906;4.198;2023-02-11T07:47:26;16.80;48.30
74617;DHT22;63123;50.906;4.198;2023-02-11T07:49:52;16.80;48.40
74617;DHT22;63123;50.906;4.198;2023-02-11T07:52:18;16.80;48.30
74617;DHT22;63123;50.906;4.198;2023-02-11T07:54:44;16.80;48.40
74617;DHT22;63123;50.906;4.198;2023-02-11T07:57:09;16.80;48.40
74617;DHT22;63123;50.906;4.198;2023-02-11T07:59:35;16.70;48.30
74617;DHT22;63123;50.906;4.198;2023-02-11T08:02:01;16.70;48.40
74617;DHT22;63123;50.906;4.198;2023-02-11T08:04:27;16.80;48.40
74617;DHT22;63123;50.906;4.198;2023-02-11T08:06:52;16.80;48.40
74617;DHT22;63123;50.906;4.198;2023-02-11T08:09:21;16.70;48.40
74617;DHT22;63123;50.906;4.198;2023-02-11T08:11:47;16.70;48.40
74617;DHT22;63123;50.906;4.198;2023-02-11T08:14:12;16.80;48.50
74617;DHT22;63123;50.906;4.198;2023-02-11T08:16:38;16.80;48.50
74617;DHT22;63123;50.906;4.198;2023-02-11T08:19:07;16.70;48.40
74617;DHT22;63123;50.906;4.198;2023-02-11T08:21:34;16.80;48.50
74617;DHT22;63123;50.906;4.198;2023-02-11T08:24:01;16.70;48.50
74617;DHT22;63123;50.906;4.198;2023-02-11T08:26:29;16.70;48.50
74617;DHT22;63123;50.906;4.198;2023-02-11T08:28:57;16.80;48.60
74617;DHT22;63123;50.906;4.198;2023-02-11T08:31:25;16.70;48.50
74617;DHT22;63123;50.906;4.198;2023-02-11T08:33:52;16.80;48.60
74617;DHT22;63123;50.906;4.198;2023-02-11T08:36:23;16.80;48.60
74617;DHT22;63123;50.906;4.198;2023-02-11T08:38:49;16.80;48.70
74617;DHT22;63123;50.906;4.198;2023-02-11T08:41:15;16.70;49.30
74617;DHT22;63123;50.906;4.198;2023-02-11T08:43:42;16.70;48.60
74617;DHT22;63123;50.906;4.198;2023-02-11T08:46:11;16.80;48.80
74617;DHT22;63123;50.906;4.198;2023-02-11T08:48:37;16.80;48.80
74617;DHT22;63123;50.906;4.198;2023-02-11T08:51:08;16.80;48.70
74617;DHT22;63123;50.906;4.198;2023-02-11T08:53:34;16.80;48.80
74617;DHT22;63123;50.906;4.198;2023-02-11T08:56:00;16.80;48.80
74617;DHT22;63123;50.906;4.198;2023-02-11T08:58:26;16.80;48.80
74617;DHT22;63123;50.906;4.198;2023-02-11T09:00:52;16.80;48.80
74617;DHT22;63123;50.906;4.198;2023-02-11T09:03:17;16.80;48.90
74617;DHT22;63123;50.906;4.198;2023-02-11T09:05:45;16.80;48.90
74617;DHT22;63123;50.906;4.198;2023-02-11T09:08:11;16.80;48.90
74617;DHT22;63123;50.906;4.198;2023-02-11T09:10:37;16.80;48.90
74617;DHT22;63123;50.906;4.198;2023-02-11T09:13:03;16.80;48.90
74617;DHT22;63123;50.906;4.198;2023-02-11T09:15:29;16.80;48.90
74617;DHT22;63123;50.906;4.198;2023-02-11T09:17:54;16.80;49.00
74617;DHT22;63123;50.906;4.198;2023-02-11T09:20:20;16.80;49.00
74617;DHT22;63123;50.906;4.198;2023-02-11T09:22:46;16.80;49.00
74617;DHT22;63123;50.906;4.198;2023-02-11T09:25:12;16.80;49.10
74617;DHT22;63123;50.906;4.198;2023-02-11T09:27:38;16.80;49.00
74617;DHT22;63123;50.906;4.198;2023-02-11T09:30:04;16.80;49.00
74617;DHT22;63123;50.906;4.198;2023-02-11T09:32:29;16.80;49.10
74617;DHT22;63123;50.906;4.198;2023-02-11T09:34:55;16.80;49.10
74617;DHT22;63123;50.906;4.198;2023-02-11T09:37:21;16.80;49.10
74617;DHT22;63123;50.906;4.198;2023-02-11T09:39:46;16.80;49.10
74617;DHT22;63123;50.906;4.198;2023-02-11T09:44:59;16.80;49.10
74617;DHT22;63123;50.906;4.198;2023-02-11T09:47:35;16.80;49.20
74617;DHT22;63123;50.906;4.198;2023-02-11T09:50:11;16.80;49.30
74617;DHT22;63123;50.906;4.198;2023-02-11T09:52:43;16.80;49.20
74617;DHT22;63123;50.906;4.198;2023-02-11T09:55:24;16.80;49.20
74617;DHT22;63123;50.906;4.198;2023-02-11T09:57:50;16.80;49.30
74617;DHT22;63123;50.906;4.198;2023-02-11T10:00:18;16.80;49.40
74617;DHT22;63123;50.906;4.198;2023-02-11T10:05:40;16.80;49.30
74617;DHT22;63123;50.906;4.198;2023-02-11T10:11:31;16.80;49.30
74617;DHT22;63123;50.906;4.198;2023-02-11T10:22:18;16.80;49.40
74617;DHT22;63123;50.906;4.198;2023-02-11T10:24:53;16.80;49.50
74617;DHT22;63123;50.906;4.198;2023-02-11T10:27:21;16.80;49.40
74617;DHT22;63123;50.906;4.198;2023-02-11T10:29:55;16.80;49.50
74617;DHT22;63123;50.906;4.198;2023-02-11T10:32:26;16.80;49.50
74617;DHT22;63123;50.906;4.198;2023-02-11T10:34:59;16.80;49.60
74617;DHT22;63123;50.906;4.198;2023-02-11T10:37:26;16.80;49.60
74617;DHT22;63123;50.906;4.198;2023-02-11T10:39:51;16.80;49.60
74617;DHT22;63123;50.906;4.198;2023-02-11T10:42:17;16.80;49.50
74617;DHT22;63123;50.906;4.198;2023-02-11T10:44:56;16.80;49.70
74617;DHT22;63123;50.906;4.198;2023-02-11T10:47:25;16.80;49.60
74617;DHT22;63123;50.906;4.198;2023-02-11T10:49:51;16.80;49.60
74617;DHT22;63123;50.906;4.198;2023-02-11T10:52:21;16.80;49.60
74617;DHT22;63123;50.906;4.198;2023-02-11T10:55:09;16.80;49.70
74617;DHT22;63123;50.906;4.198;2023-02-11T11:00:31;16.80;49.70
74617;DHT22;63123;50.906;4.198;2023-02-11T11:02:59;16.80;49.70
74617;DHT22;63123;50.906;4.198;2023-02-11T11:05:37;16.80;49.70
74617;DHT22;63123;50.906;4.198;2023-02-11T11:08:09;16.80;49.70
74617;DHT22;63123;50.906;4.198;2023-02-11T11:11:01;16.80;49.80
74617;DHT22;63123;50.906;4.198;2023-02-11T11:13:33;16.80;49.80
74617;DHT22;63123;50.906;4.198;2023-02-11T11:18:37;16.80;49.80
74617;DHT22;63123;50.906;4.198;2023-02-11T11:21:12;16.80;49.90
74617;DHT22;63123;50.906;4.198;2023-02-11T11:23:39;16.80;49.90
74617;DHT22;63123;50.906;4.198;2023-02-11T11:26:13;16.80;49.80
74617;DHT22;63123;50.906;4.198;2023-02-11T11:28:48;16.80;49.90
74617;DHT22;63123;50.906;4.198;2023-02-11T11:31:19;16.80;49.90
74617;DHT22;63123;50.906;4.198;2023-02-11T11:33:46;16.80;49.90
74617;DHT22;63123;50.906;4.198;2023-02-11T11:36:20;16.80;49.90
74617;DHT22;63123;50.906;4.198;2023-02-11T11:38:56;16.80;49.90
74617;DHT22;63123;50.906;4.198;2023-02-11T11:41:28;16.80;49.90
74617;DHT22;63123;50.906;4.198;2023-02-11T11:48:58;16.80;50.00
74617;DHT22;63123;50.906;4.198;2023-02-11T11:51:25;16.80;50.00
74617;DHT22;63123;50.906;4.198;2023-02-11T11:54:10;16.80;50.00
74617;DHT22;63123;50.906;4.198;2023-02-11T11:56:49;16.80;50.00
74617;DHT22;63123;50.906;4.198;2023-02-11T11:59:15;16.80;50.10
74617;DHT22;63123;50.906;4.198;2023-02-11T12:15:39;16.80;50.10
74617;DHT22;63123;50.906;4.198;2023-02-11T12:18:29;16.80;50.10
74617;DHT22;63123;50.906;4.198;2023-02-11T12:24:05;16.80;50.10
74617;DHT22;63123;50.906;4.198;2023-02-11T12:26:45;16.80;50.20
74617;DHT22;63123;50.906;4.198;2023-02-11T12:35:03;16.80;50.40
74617;DHT22;63123;50.906;4.198;2023-02-11T12:40:38;16.80;50.30
74617;DHT22;63123;50.906;4.198;2023-02-11T12:43:22;16.80;50.40
74617;DHT22;63123;50.906;4.198;2023-02-11T12:54:49;16.80;50.30
74617;DHT22;63123;50.906;4.198;2023-02-11T12:57:23;16.80;50.40
74617;DHT22;63123;50.906;4.198;2023-02-11T13:07:45;16.80;50.50
74617;DHT22;63123;50.906;4.198;2023-02-11T13:10:34;16.80;50.50
74617;DHT22;63123;50.906;4.198;2023-02-11T13:13:02;16.80;50.40
74617;DHT22;63123;50.906;4.198;2023-02-11T13:16:05;16.80;50.50
74617;DHT22;63123;50.906;4.198;2023-02-11T13:21:44;16.80;50.50
74617;DHT22;63123;50.906;4.198;2023-02-11T13:24:22;16.80;50.60
74617;DHT22;63123;50.906;4.198;2023-02-11T13:37:52;16.80;50.70
74617;DHT22;63123;50.906;4.198;2023-02-11T13:42:55;16.80;50.70
74617;DHT22;63123;50.906;4.198;2023-02-11T13:47:57;16.80;50.70
74617;DHT22;63123;50.906;4.198;2023-02-11T13:50:24;16.80;50.80
74617;DHT22;63123;50.906;4.198;2023-02-11T13:53:01;16.80;50.70
74617;DHT22;63123;50.906;4.198;2023-02-11T13:55:28;16.80;50.70
74617;DHT22;63123;50.906;4.198;2023-02-11T14:14:24;16.80;50.80
74617;DHT22;63123;50.906;4.198;2023-02-11T14:24:53;16.80;51.00
74617;DHT22;63123;50.906;4.198;2023-02-11T14:27:45;16.80;51.00
74617;DHT22;63123;50.906;4.198;2023-02-11T14:30:41;16.80;51.00
74617;DHT22;63123;50.906;4.198;2023-02-11T14:33:18;16.80;51.00
74617;DHT22;63123;50.906;4.198;2023-02-11T14:43:54;16.80;51.00
74617;DHT22;63123;50.906;4.198;2023-02-11T14:46:23;16.80;51.10
74617;DHT22;63123;50.906;4.198;2023-02-11T14:48:52;16.80;51.00
74617;DHT22;63123;50.906;4.198;2023-02-11T14:51:30;16.80;51.10
74617;DHT22;63123;50.906;4.198;2023-02-11T14:54:11;16.80;51.10
74617;DHT22;63123;50.906;4.198;2023-02-11T14:56:39;16.80;51.10
74617;DHT22;63123;50.906;4.198;2023-02-11T14:59:17;16.80;51.70
74617;DHT22;63123;50.906;4.198;2023-02-11T15:01:48;16.80;51.10
74617;DHT22;63123;50.906;4.198;2023-02-11T15:04:29;16.80;51.20
74617;DHT22;63123;50.906;4.198;2023-02-11T15:06:56;16.80;51.20
74617;DHT22;63123;50.906;4.198;2023-02-11T15:09:33;16.80;51.20
74617;DHT22;63123;50.906;4.198;2023-02-11T15:12:02;16.80;51.10
74617;DHT22;63123;50.906;4.198;2023-02-11T15:14:31;16.80;51.20
74617;DHT22;63123;50.906;4.198;2023-02-11T15:17:01;16.80;51.20
74617;DHT22;63123;50.906;4.198;2023-02-11T15:19:35;16.80;51.20
74617;DHT22;63123;50.906;4.198;2023-02-11T15:22:13;16.80;51.20
74617;DHT22;63123;50.906;4.198;2023-02-11T15:24:43;16.80;51.20
74617;DHT22;63123;50.906;4.198;2023-02-11T15:27:11;16.80;51.30
74617;DHT22;63123;50.906;4.198;2023-02-11T15:29:42;16.80;51.20
74617;DHT22;63123;50.906;4.198;2023-02-11T15:34:34;16.80;51.20
74617;DHT22;63123;50.906;4.198;2023-02-11T15:37:01;16.80;51.30
74617;DHT22;63123;50.906;4.198;2023-02-11T15:39:35;16.80;51.30
74617;DHT22;63123;50.906;4.198;2023-02-11T15:44:45;16.80;51.20
74617;DHT22;63123;50.906;4.198;2023-02-11T15:47:14;16.80;51.30
74617;DHT22;63123;50.906;4.198;2023-02-11T15:49:45;16.80;51.30
74617;DHT22;63123;50.906;4.198;2023-02-11T15:52:13;16.80;51.30
74617;DHT22;63123;50.906;4.198;2023-02-11T15:54:39;16.80;51.40
74617;DHT22;63123;50.906;4.198;2023-02-11T15:57:10;16.80;51.40
74617;DHT22;63123;50.906;4.198;2023-02-11T15:59:38;16.80;51.30
74617;DHT22;63123;50.906;4.198;2023-02-11T16:02:27;16.80;51.40
74617;DHT22;63123;50.906;4.198;2023-02-11T16:05:03;16.80;51.40
74617;DHT22;63123;50.906;4.198;2023-02-11T16:07:44;16.80;51.40
74617;DHT22;63123;50.906;4.198;2023-02-11T16:10:27;16.80;51.40
74617;DHT22;63123;50.906;4.198;2023-02-11T16:12:57;16.80;51.40
74617;DHT22;63123;50.906;4.198;2023-02-11T16:18:11;16.80;51.50
74617;DHT22;63123;50.906;4.198;2023-02-11T16:20:37;16.80;51.50
74617;DHT22;63123;50.906;4.198;2023-02-11T16:23:05;16.80;51.50
74617;DHT22;63123;50.906;4.198;2023-02-11T16:25:33;16.80;51.50
74617;DHT22;63123;50.906;4.198;2023-02-11T16:28:00;16.80;51.50
74617;DHT22;63123;50.906;4.198;2023-02-11T16:30:31;16.80;51.50
74617;DHT22;63123;50.906;4.198;2023-02-11T16:32:57;16.80;51.50
74617;DHT22;63123;50.906;4.198;2023-02-11T16:35:22;16.80;51.50
74617;DHT22;63123;50.906;4.198;2023-02-11T16:37:48;16.80;51.60
74617;DHT22;63123;50.906;4.198;2023-02-11T16:40:14;16.80;51.50
74617;DHT22;63123;50.906;4.198;2023-02-11T16:42:39;16.80;51.50
74617;DHT22;63123;50.906;4.198;2023-02-11T16:45:05;16.80;51.50
74617;DHT22;63123;50.906;4.198;2023-02-11T16:47:33;16.80;51.50
74617;DHT22;63123;50.906;4.198;2023-02-11T16:50:00;16.80;51.60
74617;DHT22;63123;50.906;4.198;2023-02-11T16:52:26;16.80;51.60
74617;DHT22;63123;50.906;4.198;2023-02-11T16:54:52;16.80;51.50
74617;DHT22;63123;50.906;4.198;2023-02-11T16:57:20;16.80;51.50
74617;DHT22;63123;50.906;4.198;2023-02-11T16:59:47;16.80;51.60
74617;DHT22;63123;50.906;4.198;2023-02-11T17:02:25;16.80;51.60
74617;DHT22;63123;50.906;4.198;2023-02-11T17:04:55;16.80;51.60
74617;DHT22;63123;50.906;4.198;2023-02-11T17:07:22;16.80;51.60
74617;DHT22;63123;50.906;4.198;2023-02-11T17:09:47;16.80;51.60
74617;DHT22;63123;50.906;4.198;2023-02-11T17:12:13;16.80;51.60
74617;DHT22;63123;50.906;4.198;2023-02-11T17:14:39;16.80;51.60
74617;DHT22;63123;50.906;4.198;2023-02-11T17:17:05;16.80;51.60
74617;DHT22;63123;50.906;4.198;2023-02-11T17:19:30;16.80;51.60
74617;DHT22;63123;50.906;4.198;2023-02-11T17:21:56;16.80;51.60
74617;DHT22;63123;50.906;4.198;2023-02-11T17:24:22;16.80;51.60
74617;DHT22;63123;50.906;4.198;2023-02-11T17:26:48;16.80;51.60
74617;DHT22;63123;50.906;4.198;2023-02-11T17:29:16;16.80;51.60
74617;DHT22;63123;50.906;4.198;2023-02-11T17:31:42;16.80;51.70
74617;DHT22;63123;50.906;4.198;2023-02-11T17:34:08;16.80;51.60
74617;DHT22;63123;50.906;4.198;2023-02-11T17:36:34;16.80;51.60
74617;DHT22;63123;50.906;4.198;2023-02-11T17:39:00;16.80;51.60
74617;DHT22;63123;50.906;4.198;2023-02-11T17:41:26;16.80;51.60
74617;DHT22;63123;50.906;4.198;2023-02-11T17:43:52;16.80;51.60
74617;DHT22;63123;50.906;4.198;2023-02-11T17:46:18;16.80;51.60
74617;DHT22;63123;50.906;4.198;2023-02-11T17:48:44;16.80;51.60
74617;DHT22;63123;50.906;4.198;2023-02-11T17:51:29;16.80;51.60
74617;DHT22;63123;50.906;4.198;2023-02-11T17:53:57;16.80;51.70
74617;DHT22;63123;50.906;4.198;2023-02-11T17:56:22;16.80;51.60
74617;DHT22;63123;50.906;4.198;2023-02-11T17:58:48;16.80;51.70
74617;DHT22;63123;50.906;4.198;2023-02-11T18:01:13;16.80;51.70
74617;DHT22;63123;50.906;4.198;2023-02-11T18:03:39;16.80;51.70
74617;DHT22;63123;50.906;4.198;2023-02-11T18:06:06;16.80;51.60
74617;DHT22;63123;50.906;4.198;2023-02-11T18:08:33;16.80;51.70
74617;DHT22;63123;50.906;4.198;2023-02-11T18:10:59;16.80;51.70
74617;DHT22;63123;50.906;4.198;2023-02-11T18:13:24;16.80;51.70
74617;DHT22;63123;50.906;4.198;2023-02-11T18:15:50;16.80;51.70
74617;DHT22;63123;50.906;4.198;2023-02-11T18:18:16;16.80;51.70
74617;DHT22;63123;50.906;4.198;2023-02-11T18:20:41;16.80;51.70
74617;DHT22;63123;50.906;4.198;2023-02-11T18:23:08;16.80;51.70
74617;DHT22;63123;50.906;4.198;2023-02-11T18:25:34;16.80;51.70